Time;durP1;ratioP1;P1;durP2;ratioP2;P2;SDS_P1;SDS_P2;PMS_P1;PMS_P2;Temp;Humidity;BMP_temperature;BMP_pressure;BME280_temperature;BME280_humidity;BME280_pressure;Samples;Min_cycle;Max_cycle;Signal;HPM_P1;HPM_P2
2021/03/15 00:01:33;;;;;;;11.75;9.55;;;;;;;4.18;70.01;99484.72;122997;1109;104422;-82
2021/03/15 00:04:00;;;;;;;12.70;9.55;;;;;;;4.18;69.91;99484.72;123042;1109;104912;-85
2021/03/15 00:06:41;;;;;;;13.30;7.85;;;;;;;4.16;69.52;99496.17;122685;1112;105160;-83
2021/03/15 00:09:08;;;;;;;12.33;9.53;;;;;;;4.15;69.92;99495.28;122692;1112;104409;-81
2021/03/15 00:11:35;;;;;;;11.05;8.70;;;;;;;4.15;69.69;99503.19;122770;1108;104941;-84
2021/03/15 00:14:01;;;;;;;9.30;8.30;;;;;;;4.13;69.73;99504.09;122960;1109;104415;-83
2021/03/15 00:16:42;;;;;;;17.40;10.58;;;;;;;4.03;69.46;99511.27;122710;1109;105222;-80
2021/03/15 00:19:09;;;;;;;10.80;8.45;;;;;;;4.02;69.77;99514.80;122991;1108;104469;-81
2021/03/15 00:21:36;;;;;;;14.68;9.08;;;;;;;4.03;69.73;99520.95;123214;1106;104370;-84
2021/03/15 00:24:03;;;;;;;14.73;9.30;;;;;;;4.01;69.62;99518.31;123265;1105;104313;-80
2021/03/15 00:26:30;;;;;;;12.58;8.65;;;;;;;4.00;69.66;99527.99;123194;1105;104321;-81
2021/03/15 00:28:57;;;;;;;14.17;9.80;;;;;;;3.95;69.13;99521.91;123215;1106;104299;-85
2021/03/15 00:31:23;;;;;;;10.98;9.88;;;;;;;3.97;69.28;99522.77;123244;1106;104332;-80
2021/03/15 00:34:04;;;;;;;12.50;9.13;;;;;;;4.00;69.53;99524.50;123209;1105;105195;-81
2021/03/15 00:36:45;;;;;;;16.70;8.90;;;;;;;4.03;69.33;99521.81;123199;1105;104386;-80
2021/03/15 00:39:26;;;;;;;14.90;10.20;;;;;;;4.04;69.14;99526.20;123183;1105;105099;-81
2021/03/15 00:41:53;;;;;;;11.00;9.60;;;;;;;4.03;68.96;99519.17;123304;1105;104328;-79
2021/03/15 00:44:35;;;;;;;11.45;9.15;;;;;;;3.97;69.01;99519.25;123142;1109;106830;-82
2021/03/15 00:47:03;;;;;;;14.03;9.50;;;;;;;4.01;68.74;99518.31;123152;1109;104290;-81
2021/03/15 00:49:30;;;;;;;21.23;11.10;;;;;;;3.97;68.80;99520.14;123180;1105;104355;-80
2021/03/15 00:51:56;;;;;;;13.65;9.83;;;;;;;3.93;68.52;99517.55;123387;1105;104318;-82
2021/03/15 00:54:23;;;;;;;11.90;9.45;;;;;;;3.87;68.90;99513.25;123375;1105;104283;-80
2021/03/15 00:56:49;;;;;;;10.70;9.60;;;;;;;3.84;69.00;99522.05;123432;1105;105156;-80
2021/03/15 00:59:16;;;;;;;15.23;10.67;;;;;;;3.82;68.70;99517.70;123133;1105;104258;-83
2021/03/15 01:01:43;;;;;;;12.10;8.58;;;;;;;3.76;69.10;99516.02;123133;1105;104338;-83
2021/03/15 01:04:13;;;;;;;12.77;9.20;;;;;;;3.64;68.96;99519.67;123334;1105;104977;-81
2021/03/15 01:06:44;;;;;;;11.40;10.20;;;;;;;3.51;69.10;99526.84;123389;1105;104245;-81
2021/03/15 01:09:11;;;;;;;11.47;8.33;;;;;;;3.38;69.13;99529.64;123241;1106;104252;-80
2021/03/15 01:11:38;;;;;;;11.33;9.30;;;;;;;3.34;69.74;99528.80;123214;1105;104338;-81
2021/03/15 01:14:06;;;;;;;11.75;9.65;;;;;;;3.39;69.80;99528.77;123336;1105;104514;-80
2021/03/15 01:16:33;;;;;;;13.25;9.75;;;;;;;3.46;69.73;99526.02;123457;1105;104309;-81
2021/03/15 01:19:00;;;;;;;15.15;11.20;;;;;;;3.49;69.03;99519.84;123200;1105;104309;-81
2021/03/15 01:21:41;;;;;;;12.27;10.73;;;;;;;3.45;68.73;99526.94;123159;1106;104408;-80
2021/03/15 01:24:08;;;;;;;12.75;10.50;;;;;;;3.50;68.54;99522.45;123257;1105;104373;-81
2021/03/15 01:26:35;;;;;;;12.40;10.38;;;;;;;3.51;69.06;99531.25;123414;1105;104347;-80
2021/03/15 01:29:21;;;;;;;13.48;10.88;;;;;;;3.34;68.50;99523.53;123087;1107;104360;-80
2021/03/15 01:31:48;;;;;;;16.62;11.63;;;;;;;3.28;68.49;99524.48;123187;1109;104846;-82
2021/03/15 01:34:29;;;;;;;18.20;11.15;;;;;;;3.13;69.58;99525.52;122933;1109;105021;-81
2021/03/15 01:37:04;;;;;;;15.77;11.50;;;;;;;3.06;69.28;99529.08;122997;1109;104408;-84
2021/03/15 01:39:31;;;;;;;17.03;10.83;;;;;;;3.07;69.32;99529.97;122976;1109;104319;-78
2021/03/15 01:41:59;;;;;;;15.20;11.60;;;;;;;3.13;68.62;99528.15;123052;1109;104810;-79
2021/03/15 01:44:26;;;;;;;22.10;13.47;;;;;;;3.06;68.74;99531.71;122985;1109;104553;-81
2021/03/15 01:47:07;;;;;;;16.03;12.40;;;;;;;2.91;69.23;99526.61;122769;1109;104462;-80
2021/03/15 01:49:34;;;;;;;14.87;12.20;;;;;;;2.90;68.57;99523.09;122675;1109;104386;-82
2021/03/15 01:52:01;;;;;;;13.28;10.68;;;;;;;2.82;69.41;99523.16;122691;1109;104391;-80
2021/03/15 01:54:28;;;;;;;15.10;11.08;;;;;;;2.70;70.15;99520.64;122761;1109;104524;-81
2021/03/15 01:56:55;;;;;;;15.28;12.37;;;;;;;2.75;70.39;99518.84;122799;1109;104229;-80
2021/03/15 01:59:21;;;;;;;15.03;10.05;;;;;;;2.78;69.47;99524.07;122719;1108;104469;-80
2021/03/15 02:01:48;;;;;;;15.58;10.60;;;;;;;2.73;69.73;99525.00;122561;1109;104743;-80
2021/03/15 02:04:16;;;;;;;19.00;12.07;;;;;;;2.72;69.98;99526.77;122595;1109;104809;-80
2021/03/15 02:06:44;;;;;;;15.68;11.68;;;;;;;2.65;70.34;99519.80;122767;1105;104531;-81
2021/03/15 02:09:12;;;;;;;14.80;11.78;;;;;;;2.54;70.48;99525.15;123069;1105;104380;-80
2021/03/15 02:12:04;;;;;;;18.87;10.80;;;;;;;2.39;70.39;99523.52;123292;1105;104438;-87
2021/03/15 02:14:44;;;;;;;15.05;11.28;;;;;;;2.27;71.73;99511.33;123034;1106;104527;-82
2021/03/15 02:17:33;;;;;;;14.80;10.45;;;;;;;2.28;70.90;99526.22;123455;1105;104360;-83
2021/03/15 02:20:39;;;;;;;16.07;10.80;;;;;;;2.17;71.16;99531.55;123241;1105;104961;-79
2021/03/15 02:23:26;;;;;;;14.25;11.50;;;;;;;2.14;71.11;99528.06;123218;1105;104251;-80
2021/03/15 02:26:16;;;;;;;15.98;11.78;;;;;;;2.16;72.13;99527.17;123200;1105;104303;-81
2021/03/15 02:29:12;;;;;;;14.10;10.73;;;;;;;2.24;71.91;99531.48;123154;1105;104296;-82
2021/03/15 02:32:12;;;;;;;13.20;11.25;;;;;;;2.17;72.30;99528.92;123055;1109;104364;-80
2021/03/15 02:35:07;;;;;;;12.07;10.47;;;;;;;2.15;71.55;99528.05;122972;1109;104505;-80
2021/03/15 02:38:06;;;;;;;11.33;10.18;;;;;;;2.21;71.14;99531.52;123194;1105;104415;-81
2021/03/15 02:40:39;;;;;;;13.85;10.70;;;;;;;2.21;71.22;99521.87;123237;1105;104572;-82
2021/03/15 02:43:09;;;;;;;12.17;10.63;;;;;;;2.28;70.94;99520.97;123255;1105;104389;-88
2021/03/15 02:45:37;;;;;;;14.45;11.35;;;;;;;2.30;70.77;99526.20;123468;1105;104347;-79
2021/03/15 02:48:18;;;;;;;11.63;10.30;;;;;;;2.24;70.88;99516.62;123214;1105;105110;-80
2021/03/15 02:51:00;;;;;;;17.37;11.57;;;;;;;2.27;70.18;99521.84;123174;1109;104383;-80
2021/03/15 02:53:28;;;;;;;15.20;12.40;;;;;;;2.28;69.68;99522.70;123131;1108;104293;-80
2021/03/15 02:56:01;;;;;;;16.00;13.83;;;;;;;2.25;70.59;99528.84;123169;1105;105005;-83
2021/03/15 02:58:28;;;;;;;16.67;11.73;;;;;;;2.27;69.46;99534.13;123207;1105;104306;-80
2021/03/15 03:00:56;;;;;;;17.80;12.60;;;;;;;2.18;70.64;99535.03;123301;1105;104277;-84
2021/03/15 03:03:24;;;;;;;19.35;12.30;;;;;;;2.12;70.53;99532.44;123378;1105;104386;-80
2021/03/15 03:06:06;;;;;;;12.30;10.70;;;;;;;2.11;70.66;99535.97;122845;1109;104357;-80
2021/03/15 03:08:34;;;;;;;16.07;12.43;;;;;;;2.08;71.32;99534.23;122999;1109;104334;-82
2021/03/15 03:11:01;;;;;;;14.47;10.85;;;;;;;2.03;71.43;99541.26;122977;1108;104411;-82
2021/03/15 03:13:30;;;;;;;15.45;11.63;;;;;;;1.95;72.05;99540.44;123011;1109;104412;-78
2021/03/15 03:15:57;;;;;;;17.00;11.40;;;;;;;1.90;72.60;99545.69;123036;1109;104556;-83
2021/03/15 03:18:25;;;;;;;19.12;12.55;;;;;;;1.86;72.97;99543.10;123026;1109;104361;-83
2021/03/15 03:20:57;;;;;;;18.05;13.88;;;;;;;1.82;72.28;99540.47;122971;1108;104291;-79
2021/03/15 03:23:27;;;;;;;15.90;12.60;;;;;;;1.83;72.00;99536.11;122677;1108;104492;-82
2021/03/15 03:25:55;;;;;;;13.95;11.40;;;;;;;1.95;72.11;99536.04;122536;1109;104409;-79
2021/03/15 03:28:23;;;;;;;14.83;13.27;;;;;;;2.06;71.33;99541.23;122483;1109;104383;-80
2021/03/15 03:30:50;;;;;;;18.55;12.70;;;;;;;2.10;71.08;99550.84;122568;1109;104869;-81
2021/03/15 03:33:17;;;;;;;17.73;13.90;;;;;;;2.06;71.42;99548.25;122511;1108;104558;-80
2021/03/15 03:35:44;;;;;;;18.55;13.35;;;;;;;2.02;71.09;99551.77;122521;1109;104284;-81
2021/03/15 03:38:11;;;;;;;20.50;14.77;;;;;;;2.00;70.99;99547.39;122367;1109;104325;-80
2021/03/15 03:40:37;;;;;;;18.05;14.00;;;;;;;2.03;71.04;99548.24;122472;1109;104411;-80
2021/03/15 03:43:05;;;;;;;15.23;12.53;;;;;;;2.06;70.56;99554.36;122420;1109;104500;-80
2021/03/15 03:45:32;;;;;;;17.27;12.10;;;;;;;1.96;70.35;99561.42;122678;1105;104342;-81
2021/03/15 03:47:59;;;;;;;17.33;12.53;;;;;;;1.79;71.11;99555.38;122472;1105;104499;-81
2021/03/15 03:50:29;;;;;;;13.37;11.37;;;;;;;1.62;72.33;99569.42;122515;1105;104412;-80
2021/03/15 03:53:01;;;;;;;19.40;14.30;;;;;;;1.60;72.50;99570.30;123197;1105;104346;-81
2021/03/15 03:55:56;;;;;;;14.37;12.83;;;;;;;1.63;72.28;99567.70;123308;1105;104223;-81
2021/03/15 03:58:23;;;;;;;16.27;11.53;;;;;;;1.70;71.75;99568.55;123200;1106;105536;-81
2021/03/15 04:00:57;;;;;;;16.53;10.73;;;;;;;1.79;71.03;99572.00;123543;1105;104165;-81
2021/03/15 04:03:28;;;;;;;13.47;11.70;;;;;;;1.84;70.56;99566.74;123564;1105;104376;-80
2021/03/15 04:06:00;;;;;;;12.43;11.17;;;;;;;1.88;70.70;99572.83;123383;1105;104331;-81
2021/03/15 04:08:41;;;;;;;12.87;10.73;;;;;;;1.89;71.07;99562.31;123407;1105;104338;-81
2021/03/15 04:11:10;;;;;;;15.33;11.60;;;;;;;1.81;70.23;99559.75;123389;1105;104290;-79
2021/03/15 04:13:37;;;;;;;14.23;11.63;;;;;;;1.91;70.22;99563.20;123315;1105;104408;-81
2021/03/15 04:16:07;;;;;;;17.20;12.20;;;;;;;1.92;70.67;99562.33;123293;1105;104386;-83
2021/03/15 04:18:36;;;;;;;15.40;11.90;;;;;;;1.81;70.58;99554.50;123261;1106;104338;-81
2021/03/15 04:21:19;;;;;;;14.58;12.47;;;;;;;1.75;70.20;99551.03;123006;1108;104922;-81
2021/03/15 04:23:48;;;;;;;13.32;11.90;;;;;;;1.75;70.04;99551.89;123049;1109;104319;-82
2021/03/15 04:26:15;;;;;;;17.33;11.83;;;;;;;1.80;70.43;99558.00;123119;1109;104479;-82
2021/03/15 04:28:43;;;;;;;17.47;14.10;;;;;;;1.83;70.23;99559.73;123076;1109;104507;-82
2021/03/15 04:31:10;;;;;;;14.38;12.88;;;;;;;1.77;69.87;99565.00;123127;1109;104271;-79
2021/03/15 04:33:40;;;;;;;17.80;12.80;;;;;;;1.74;70.56;99562.41;123083;1109;105188;-82
2021/03/15 04:36:07;;;;;;;14.30;12.70;;;;;;;1.62;70.76;99544.95;123118;1108;104236;-82
2021/03/15 04:38:35;;;;;;;15.45;13.13;;;;;;;1.62;70.65;99572.05;123076;1109;104575;-81
2021/03/15 04:41:02;;;;;;;19.92;12.03;;;;;;;1.58;70.63;99572.08;123120;1108;104485;-82
2021/03/15 04:43:31;;;;;;;13.47;11.70;;;;;;;1.47;71.11;99583.47;122946;1109;104488;-80
2021/03/15 04:45:58;;;;;;;18.90;12.37;;;;;;;1.38;71.58;99580.87;122938;1109;104745;-81
2021/03/15 04:48:26;;;;;;;17.27;13.10;;;;;;;1.32;71.54;99589.63;123112;1109;104274;-81
2021/03/15 04:50:56;;;;;;;15.28;12.75;;;;;;;1.23;71.83;99592.27;123090;1109;105053;-81
2021/03/15 04:53:23;;;;;;;16.00;11.95;;;;;;;1.15;73.32;99581.78;123033;1109;104408;-80
2021/03/15 04:55:50;;;;;;;17.82;12.63;;;;;;;1.15;73.91;99594.03;123041;1109;104536;-86
2021/03/15 04:58:17;;;;;;;16.85;12.65;;;;;;;1.18;73.63;99598.41;123088;1109;104354;-82
2021/03/15 05:00:46;;;;;;;14.13;12.70;;;;;;;1.22;73.86;99601.00;123141;1106;104322;-81
2021/03/15 05:03:15;;;;;;;15.33;13.43;;;;;;;1.28;73.40;99602.73;123313;1106;104242;-79
2021/03/15 05:05:43;;;;;;;17.77;13.62;;;;;;;1.40;73.72;99607.09;123350;1105;104288;-84
2021/03/15 05:08:11;;;;;;;14.07;12.63;;;;;;;1.39;74.00;99600.13;123120;1106;104536;-80
2021/03/15 05:10:38;;;;;;;16.45;13.48;;;;;;;1.52;72.95;99604.47;123190;1105;104320;-81
2021/03/15 05:13:05;;;;;;;14.60;13.20;;;;;;;1.66;72.89;99602.66;123145;1105;104373;-80
2021/03/15 05:15:33;;;;;;;16.00;14.13;;;;;;;1.65;74.06;99602.66;123205;1106;104230;-80
2021/03/15 05:18:00;;;;;;;18.97;14.23;;;;;;;1.74;73.91;99609.66;123242;1105;104306;-84
2021/03/15 05:20:27;;;;;;;15.93;12.45;;;;;;;1.78;74.15;99612.24;123219;1105;105098;-80
2021/03/15 05:22:54;;;;;;;17.77;13.03;;;;;;;1.78;74.38;99604.37;123251;1105;105021;-81
2021/03/15 05:25:22;;;;;;;23.67;16.33;;;;;;;1.80;74.22;99613.13;123287;1105;104341;-79
2021/03/15 05:27:50;;;;;;;21.62;15.45;;;;;;;1.77;74.50;99618.40;123197;1105;104182;-80
2021/03/15 05:30:19;;;;;;;17.50;13.17;;;;;;;1.81;74.82;99617.51;123109;1105;104307;-82
2021/03/15 05:32:50;;;;;;;23.03;15.40;;;;;;;1.89;75.05;99614.83;123196;1105;104347;-80
2021/03/15 05:35:18;;;;;;;21.93;15.00;;;;;;;1.98;74.83;99619.19;123228;1105;104977;-81
2021/03/15 05:37:48;;;;;;;23.35;14.23;;;;;;;2.04;74.47;99607.77;123228;1105;104293;-81
2021/03/15 05:40:24;;;;;;;21.90;14.43;;;;;;;2.06;74.39;99613.91;123317;1105;104242;-81
2021/03/15 05:42:59;;;;;;;16.73;13.57;;;;;;;2.05;74.43;99617.41;123269;1105;104392;-79
2021/03/15 05:45:32;;;;;;;22.03;15.13;;;;;;;2.05;75.12;99614.78;123311;1105;104232;-81
2021/03/15 05:48:01;;;;;;;19.65;16.02;;;;;;;2.05;74.74;99604.27;123300;1105;104310;-78
2021/03/15 05:50:55;;;;;;;18.80;14.63;;;;;;;2.07;74.42;99607.78;123200;1105;104326;-79
2021/03/15 05:53:40;;;;;;;28.43;19.23;;;;;;;2.10;74.79;99613.02;123252;1105;104284;-81
2021/03/15 05:56:15;;;;;;;51.90;30.25;;;;;;;2.09;74.72;99620.03;123214;1105;104993;-86
2021/03/15 05:59:20;;;;;;;41.63;28.97;;;;;;;2.07;75.27;99620.91;123205;1106;104224;-82
2021/03/15 06:02:12;;;;;;;37.23;27.40;;;;;;;2.05;75.74;99620.89;123202;1105;104237;-82
2021/03/15 06:04:55;;;;;;;31.33;21.27;;;;;;;2.08;75.71;99618.27;123241;1105;104210;-83
2021/03/15 06:07:26;;;;;;;27.17;20.08;;;;;;;2.13;76.11;99629.64;123162;1105;105087;-82
2021/03/15 06:10:03;;;;;;;29.35;20.45;;;;;;;2.13;75.47;99628.75;123174;1105;104383;-81
2021/03/15 06:12:37;;;;;;;23.50;19.53;;;;;;;2.17;76.47;99626.12;123268;1105;104226;-84
2021/03/15 06:15:05;;;;;;;23.15;14.90;;;;;;;2.23;76.05;99635.71;123311;1105;104303;-80
2021/03/15 06:17:32;;;;;;;23.05;17.40;;;;;;;2.23;75.90;99630.45;123113;1105;104258;-80
2021/03/15 06:19:59;;;;;;;21.02;17.55;;;;;;;2.23;76.43;99624.34;123320;1105;104301;-82
2021/03/15 06:22:27;;;;;;;18.13;14.87;;;;;;;2.26;75.85;99629.57;123292;1105;104159;-80
2021/03/15 06:24:54;;;;;;;23.65;16.62;;;;;;;2.33;76.61;99634.80;123157;1105;104935;-80
2021/03/15 06:27:21;;;;;;;19.13;16.03;;;;;;;2.39;76.51;99633.02;123244;1105;105085;-78
2021/03/15 06:29:47;;;;;;;38.53;32.33;;;;;;;2.44;77.00;99637.36;123113;1105;104223;-83
2021/03/15 06:32:15;;;;;;;23.77;18.07;;;;;;;2.54;76.73;99635.55;123355;1105;104401;-80
2021/03/15 06:34:43;;;;;;;24.65;18.30;;;;;;;2.62;76.80;99635.50;123246;1105;104386;-81
2021/03/15 06:37:11;;;;;;;22.25;16.70;;;;;;;2.67;76.87;99631.95;123253;1104;104338;-80
2021/03/15 06:39:38;;;;;;;25.50;17.03;;;;;;;2.67;77.03;99637.21;123207;1105;104380;-80
2021/03/15 06:42:19;;;;;;;29.92;21.62;;;;;;;2.82;77.23;99632.73;123097;1106;104408;-79
2021/03/15 06:45:00;;;;;;;33.37;21.70;;;;;;;2.93;77.17;99641.44;123169;1105;104290;-79
2021/03/15 06:47:43;;;;;;;29.03;22.23;;;;;;;2.98;76.38;99641.39;123133;1106;104467;-80
2021/03/15 06:50:12;;;;;;;35.00;21.23;;;;;;;3.13;76.66;99651.80;123243;1105;104335;-82
2021/03/15 06:52:58;;;;;;;34.63;26.07;;;;;;;3.28;76.28;99657.80;122949;1105;104570;-80
2021/03/15 06:55:28;;;;;;;30.83;24.07;;;;;;;3.32;76.51;99647.25;123158;1105;104258;-81
2021/03/15 06:57:55;;;;;;;44.77;27.35;;;;;;;3.30;75.81;99646.38;123095;1105;104986;-80
2021/03/15 07:00:28;;;;;;;35.98;24.32;;;;;;;3.37;75.86;99646.33;123191;1105;104447;-79
2021/03/15 07:03:04;;;;;;;33.70;23.80;;;;;;;3.42;75.79;99645.39;123244;1105;104328;-83
2021/03/15 07:05:32;;;;;;;33.58;24.10;;;;;;;3.57;76.08;99643.50;123171;1106;104367;-80
2021/03/15 07:08:03;;;;;;;42.50;25.43;;;;;;;3.64;75.07;99647.84;123251;1106;104315;-82
2021/03/15 07:10:32;;;;;;;33.45;25.40;;;;;;;3.67;75.59;99642.53;123228;1105;104344;-80
2021/03/15 07:13:17;;;;;;;33.03;23.90;;;;;;;3.76;75.41;99646.80;122896;1109;104529;-83
2021/03/15 07:15:46;;;;;;;40.80;26.57;;;;;;;3.85;75.58;99636.17;122870;1108;104411;-84
2021/03/15 07:18:19;;;;;;;40.33;26.37;;;;;;;3.80;74.96;99648.55;123036;1105;104220;-82
2021/03/15 07:21:03;;;;;;;34.53;24.87;;;;;;;3.77;75.89;99652.09;122824;1109;105359;-81
2021/03/15 07:23:50;;;;;;;40.28;26.57;;;;;;;3.83;75.05;99652.00;122916;1109;104307;-81
2021/03/15 07:26:30;;;;;;;37.20;25.33;;;;;;;3.98;74.99;99645.67;123189;1106;104268;-89
2021/03/15 07:28:58;;;;;;;37.80;26.75;;;;;;;4.02;74.95;99649.16;123247;1105;104284;-78
2021/03/15 07:31:32;;;;;;;33.07;26.40;;;;;;;4.07;75.00;99646.48;123175;1105;104399;-81
2021/03/15 07:34:18;;;;;;;33.13;23.73;;;;;;;4.01;74.63;99647.41;122671;1109;104390;-81
2021/03/15 07:36:47;;;;;;;36.70;25.75;;;;;;;4.04;75.14;99657.04;122830;1109;104399;-80
2021/03/15 07:39:20;;;;;;;36.43;26.10;;;;;;;4.05;75.01;99654.38;122916;1109;104437;-82
2021/03/15 07:41:49;;;;;;;38.17;26.47;;;;;;;4.06;75.23;99660.55;122835;1109;104762;-84
2021/03/15 07:44:19;;;;;;;37.80;21.40;;;;;;;4.07;75.25;99659.66;122887;1109;104297;-80
2021/03/15 07:46:47;;;;;;;25.55;18.80;;;;;;;4.06;75.22;99657.91;122931;1109;104421;-79
2021/03/15 07:49:25;;;;;;;28.07;18.30;;;;;;;4.02;75.16;99654.43;122933;1109;104421;-85
2021/03/15 07:51:56;;;;;;;31.63;23.13;;;;;;;4.06;75.46;99655.27;122624;1109;104230;-80
2021/03/15 07:54:39;;;;;;;33.13;19.90;;;;;;;4.09;75.54;99658.76;122453;1109;104438;-80
2021/03/15 07:57:16;;;;;;;32.53;24.07;;;;;;;4.12;75.40;99665.72;122281;1109;104398;-81
2021/03/15 07:59:50;;;;;;;31.77;22.13;;;;;;;4.17;75.66;99656.89;122547;1109;104402;-82
2021/03/15 08:02:22;;;;;;;27.93;21.40;;;;;;;4.23;75.08;99657.72;122626;1109;104354;-82
2021/03/15 08:04:50;;;;;;;33.20;23.60;;;;;;;4.22;74.69;99659.45;122694;1109;104435;-82
2021/03/15 08:07:18;;;;;;;24.95;19.80;;;;;;;4.28;75.36;99662.03;122586;1109;104309;-81
2021/03/15 08:10:00;;;;;;;24.25;18.15;;;;;;;4.33;74.61;99657.58;122441;1109;104367;-79
2021/03/15 08:12:44;;;;;;;25.50;18.62;;;;;;;4.31;74.29;99659.34;122637;1108;105467;-80
2021/03/15 08:15:13;;;;;;;28.25;21.23;;;;;;;4.36;74.16;99664.58;122944;1108;104319;-79
2021/03/15 08:17:45;;;;;;;31.90;19.87;;;;;;;4.38;74.34;99661.91;123145;1109;104294;-79
2021/03/15 08:20:14;;;;;;;32.97;21.77;;;;;;;4.44;74.27;99662.70;123255;1109;104227;-80
2021/03/15 08:22:45;;;;;;;33.97;20.50;;;;;;;4.59;74.16;99660.76;123016;1108;104482;-82
2021/03/15 08:25:12;;;;;;;30.55;22.32;;;;;;;4.64;73.64;99661.57;123098;1109;104406;-82
2021/03/15 08:27:40;;;;;;;30.55;20.85;;;;;;;4.69;73.09;99657.08;122746;1109;104527;-81
2021/03/15 08:30:18;;;;;;;25.63;21.13;;;;;;;4.69;72.75;99664.98;122873;1109;104380;-90
2021/03/15 08:32:45;;;;;;;29.83;21.93;;;;;;;4.85;72.57;99658.61;123027;1106;104944;-81
2021/03/15 08:35:29;;;;;;;28.30;18.90;;;;;;;4.87;71.87;99663.00;122856;1108;104677;-82
2021/03/15 08:37:57;;;;;;;32.03;19.83;;;;;;;4.90;71.91;99658.53;122912;1109;104423;-80
2021/03/15 08:41:15;;;;;;;28.73;21.73;;;;;;;4.99;72.02;99660.17;122855;1107;104469;-81
2021/03/15 08:43:45;;;;;;;24.75;19.42;;;;;;;5.11;71.59;99657.33;122905;1109;104405;-80
2021/03/15 08:46:18;;;;;;;28.98;20.05;;;;;;;5.27;71.48;99657.09;122902;1109;104287;-82
2021/03/15 08:48:45;;;;;;;22.37;17.77;;;;;;;5.43;71.16;99657.70;122808;1109;104316;-82
2021/03/15 08:51:33;;;;;;;27.67;21.47;;;;;;;5.55;70.82;99661.91;122804;1109;104424;-82
2021/03/15 08:54:06;;;;;;;25.88;17.98;;;;;;;5.67;69.85;99659.89;122794;1108;104299;-88
2021/03/15 08:56:34;;;;;;;23.50;17.25;;;;;;;5.67;69.43;99665.17;123010;1105;104472;-82
2021/03/15 08:59:03;;;;;;;22.10;16.27;;;;;;;5.72;69.58;99666.86;123008;1105;104306;-79
2021/03/15 09:01:50;;;;;;;17.62;14.33;;;;;;;5.82;68.81;99665.80;123081;1105;104230;-86
2021/03/15 09:04:31;;;;;;;24.53;17.47;;;;;;;5.79;68.57;99653.52;123175;1105;104203;-80
2021/03/15 09:06:59;;;;;;;23.75;17.17;;;;;;;5.81;68.64;99661.41;123116;1105;104345;-83
2021/03/15 09:09:30;;;;;;;22.73;17.75;;;;;;;6.01;68.50;99664.59;123026;1105;104258;-80
2021/03/15 09:11:58;;;;;;;20.65;16.40;;;;;;;6.15;68.44;99659.02;123037;1105;104252;-79
2021/03/15 09:14:27;;;;;;;25.65;18.25;;;;;;;6.22;67.62;99653.61;123040;1105;104342;-82
2021/03/15 09:17:10;;;;;;;26.60;18.02;;;;;;;6.26;67.50;99660.58;123013;1105;105156;-79
2021/03/15 09:19:47;;;;;;;23.07;18.80;;;;;;;6.21;67.30;99665.08;122919;1105;104306;-83
2021/03/15 09:22:34;;;;;;;23.27;19.10;;;;;;;6.10;67.32;99666.16;122924;1105;104616;-79
2021/03/15 09:25:18;;;;;;;33.05;20.55;;;;;;;6.15;68.19;99668.73;122985;1105;104727;-81
2021/03/15 09:27:50;;;;;;;26.63;20.07;;;;;;;6.23;67.60;99661.50;122814;1105;104492;-79
2021/03/15 09:30:29;;;;;;;21.48;19.07;;;;;;;6.41;67.15;99662.02;122999;1105;104462;-81
2021/03/15 09:32:57;;;;;;;21.47;16.87;;;;;;;6.72;66.53;99664.88;123185;1105;104776;-80
2021/03/15 09:35:37;;;;;;;23.90;20.95;;;;;;;6.79;66.36;99670.91;122948;1105;104287;-82
2021/03/15 09:38:11;;;;;;;26.33;18.47;;;;;;;6.74;65.56;99660.41;122949;1105;104255;-81
2021/03/15 09:40:49;;;;;;;23.50;18.73;;;;;;;6.79;66.23;99658.53;123058;1105;104226;-81
2021/03/15 09:43:32;;;;;;;26.25;20.08;;;;;;;6.95;66.47;99656.41;123002;1105;104409;-82
2021/03/15 09:46:09;;;;;;;38.47;28.80;;;;;;;7.01;65.99;99658.03;123010;1105;104424;-80
2021/03/15 09:48:36;;;;;;;29.97;23.70;;;;;;;6.97;66.07;99643.13;122981;1106;104398;-82
2021/03/15 09:51:04;;;;;;;33.05;23.30;;;;;;;7.10;65.75;99662.24;122939;1105;104348;-79
2021/03/15 09:53:32;;;;;;;32.38;24.32;;;;;;;7.09;65.54;99660.50;123112;1105;104348;-81
2021/03/15 09:56:13;;;;;;;24.83;19.73;;;;;;;7.00;65.76;99661.61;123010;1105;104338;-79
2021/03/15 09:58:40;;;;;;;29.18;19.65;;;;;;;6.98;65.74;99664.30;123071;1105;104373;-79
2021/03/15 10:01:14;;;;;;;27.55;20.70;;;;;;;7.00;65.36;99653.66;123037;1105;104245;-82
2021/03/15 10:03:50;;;;;;;27.40;21.07;;;;;;;7.10;65.91;99659.59;123100;1105;104438;-81
2021/03/15 10:06:23;;;;;;;24.25;20.62;;;;;;;7.15;64.75;99665.66;123023;1105;104284;-84
2021/03/15 10:08:51;;;;;;;23.80;20.75;;;;;;;7.17;65.73;99669.12;123033;1105;104775;-80
2021/03/15 10:11:19;;;;;;;29.25;22.40;;;;;;;7.25;64.88;99667.19;123075;1106;104616;-82
2021/03/15 10:13:58;;;;;;;28.87;22.33;;;;;;;7.28;64.42;99656.50;122986;1105;104419;-82
2021/03/15 10:16:25;;;;;;;34.15;17.85;;;;;;;7.29;63.80;99657.36;123142;1105;104366;-79
2021/03/15 10:18:52;;;;;;;21.05;17.60;;;;;;;7.29;64.23;99654.71;122981;1105;104350;-80
2021/03/15 10:21:30;;;;;;;29.30;21.97;;;;;;;7.41;64.22;99657.08;122823;1105;104440;-80
2021/03/15 10:23:58;;;;;;;33.37;21.87;;;;;;;7.66;63.83;99649.36;123120;1106;104714;-79
2021/03/15 10:26:25;;;;;;;35.07;22.60;;;;;;;7.78;64.41;99634.02;122944;1105;104245;-80
2021/03/15 10:28:53;;;;;;;28.77;23.00;;;;;;;7.91;63.77;99637.22;123087;1106;104453;-80
2021/03/15 10:31:23;;;;;;;33.07;26.27;;;;;;;7.99;63.04;99627.27;123002;1105;105235;-80
2021/03/15 10:34:07;;;;;;;40.38;32.20;;;;;;;8.01;63.29;99634.27;122691;1108;104476;-80
2021/03/15 10:36:50;;;;;;;16.20;13.50;;;;;;;7.86;60.80;99622.31;122444;1109;104364;-79
2021/03/15 10:39:19;;;;;;;85.53;67.23;;;;;;;7.70;62.23;99620.97;122378;1109;104432;-83
2021/03/15 10:41:46;;;;;;;35.27;28.87;;;;;;;7.66;61.53;99628.16;122445;1109;104459;-81
2021/03/15 10:44:20;;;;;;;31.17;26.03;;;;;;;7.63;62.58;99625.57;122674;1109;104635;-83
2021/03/15 10:46:54;;;;;;;27.48;20.72;;;;;;;7.63;61.96;99630.02;122768;1109;104492;-80
2021/03/15 10:49:27;;;;;;;27.67;20.50;;;;;;;7.53;62.40;99617.01;122531;1109;104463;-80
2021/03/15 10:51:54;;;;;;;101.95;60.38;;;;;;;7.59;62.82;99621.27;122425;1109;104773;-79
2021/03/15 10:54:28;;;;;;;90.75;52.45;;;;;;;7.73;62.13;99615.61;122499;1109;104306;-80
2021/03/15 10:57:14;;;;;;;129.35;86.95;;;;;;;7.93;61.36;99614.17;122611;1111;104440;-80
2021/03/15 10:59:41;;;;;;;166.20;104.90;;;;;;;8.11;61.33;99608.34;122607;1109;104418;-79
2021/03/15 11:02:09;;;;;;;122.70;79.65;;;;;;;8.25;60.46;99622.98;122468;1108;104754;-83
2021/03/15 11:04:40;;;;;;;193.17;127.03;;;;;;;8.28;60.30;99614.95;122574;1109;105930;-80
2021/03/15 11:07:26;;;;;;;174.10;124.90;;;;;;;8.28;59.83;99609.65;122493;1109;104351;-81
2021/03/15 11:09:58;;;;;;;66.47;49.38;;;;;;;8.39;59.81;99606.67;122559;1112;104421;-83
2021/03/15 11:12:46;;;;;;;35.73;28.15;;;;;;;8.53;58.85;99601.85;122778;1109;104323;-80
2021/03/15 11:15:18;;;;;;;18.30;15.90;;;;;;;8.59;58.44;99596.33;122970;1105;104265;-81
2021/03/15 11:17:58;;;;;;;17.20;15.35;;;;;;;8.68;57.46;99595.19;123231;1105;104268;-80
2021/03/15 11:20:47;;;;;;;24.32;20.68;;;;;;;8.73;57.33;99592.38;123008;1105;104460;-79
2021/03/15 11:23:27;;;;;;;32.38;25.43;;;;;;;8.62;57.71;99587.41;123034;1105;104309;-81
2021/03/15 11:26:14;;;;;;;20.60;14.70;;;;;;;8.41;57.11;99592.45;122846;1105;104706;-82
2021/03/15 11:28:52;;;;;;;20.08;16.07;;;;;;;8.25;57.94;99580.54;123001;1104;104357;-83
2021/03/15 11:31:23;;;;;;;18.25;16.30;;;;;;;8.23;58.85;99577.94;123000;1105;104316;-84
2021/03/15 11:33:56;;;;;;;20.10;13.88;;;;;;;8.34;57.89;99580.27;123056;1105;104309;-80
2021/03/15 11:36:25;;;;;;;19.75;16.65;;;;;;;8.33;57.34;99575.86;123074;1105;104257;-82